createdAt,value
2018-05-18T00:02:00.750Z,12.20
2018-05-18T00:06:04.034Z,12.10
2018-05-18T00:10:06.595Z,12.00
2018-05-18T00:14:09.235Z,12.10
2018-05-18T00:18:12.131Z,12.20
2018-05-18T00:22:14.659Z,12.10
2018-05-18T00:26:17.235Z,12.00
2018-05-18T00:30:19.816Z,12.00
2018-05-18T00:34:22.827Z,12.10
2018-05-18T00:38:26.139Z,12.00
2018-05-18T00:42:34.184Z,12.00
2018-05-18T00:46:37.475Z,11.80
2018-05-18T00:50:40.035Z,11.70
2018-05-18T00:54:42.567Z,11.80
2018-05-18T00:58:45.118Z,11.70
2018-05-18T01:02:48.420Z,11.90
2018-05-18T01:06:50.994Z,11.90
2018-05-18T01:10:54.348Z,12.00
2018-05-18T01:14:56.900Z,11.90
2018-05-18T01:19:00.199Z,11.80
2018-05-18T01:23:03.523Z,11.80
2018-05-18T01:27:06.828Z,11.90
2018-05-18T01:31:10.159Z,11.80
2018-05-18T01:35:13.471Z,11.70
2018-05-18T01:39:16.142Z,11.60
2018-05-18T01:43:18.703Z,11.50
2018-05-18T01:47:22.061Z,11.80
2018-05-18T01:51:24.602Z,11.70
2018-05-18T01:55:27.255Z,11.80
2018-05-18T01:59:29.788Z,11.70
2018-05-18T02:03:32.658Z,11.50
2018-05-18T02:07:35.961Z,11.50
2018-05-18T02:11:38.535Z,11.40
2018-05-18T02:15:41.063Z,11.50
2018-05-18T02:19:43.628Z,11.20
2018-05-18T02:23:46.156Z,10.90
2018-05-18T02:27:48.847Z,10.80
2018-05-18T02:31:51.395Z,10.80
2018-05-18T02:35:54.055Z,10.90
2018-05-18T02:39:56.601Z,11.10
2018-05-18T02:43:59.173Z,11.00
2018-05-18T02:48:01.715Z,10.90
2018-05-18T02:52:04.299Z,10.90
2018-05-18T02:56:06.840Z,11.00
2018-05-18T03:00:09.410Z,11.10
2018-05-18T03:04:11.947Z,11.20
2018-05-18T03:08:14.507Z,11.20
2018-05-18T03:12:17.031Z,11.30
2018-05-18T03:16:19.591Z,11.30
2018-05-18T03:20:22.927Z,11.50
2018-05-18T03:24:25.488Z,11.50
2018-05-18T03:28:34.086Z,11.60
2018-05-18T03:32:36.743Z,11.70
2018-05-18T03:36:39.275Z,11.70
2018-05-18T03:40:42.599Z,11.60
2018-05-18T03:44:45.127Z,11.50
2018-05-18T03:48:47.707Z,11.30
2018-05-18T03:52:52.947Z,11.70
2018-05-18T03:56:55.506Z,11.70
2018-05-18T04:00:58.055Z,12.00
2018-05-18T04:05:12.573Z,11.80
2018-05-18T04:09:15.119Z,11.80
2018-05-18T04:13:17.731Z,11.90
2018-05-18T04:17:20.253Z,11.90
2018-05-18T04:21:24.780Z,11.90
2018-05-18T04:25:27.327Z,11.90
2018-05-18T04:29:29.905Z,12.10
2018-05-18T04:38:01.544Z,11.90
2018-05-18T04:42:14.577Z,11.70
2018-05-18T04:46:17.139Z,11.70
2018-05-18T04:50:19.675Z,11.60
2018-05-18T04:54:22.638Z,11.60
2018-05-18T04:58:25.146Z,11.90
2018-05-18T05:02:31.671Z,12.10
2018-05-18T05:06:34.214Z,12.20
2018-05-18T05:10:36.775Z,12.10
2018-05-18T05:14:50.590Z,12.40
2018-05-18T05:18:53.251Z,12.80
2018-05-18T05:22:55.786Z,12.80
2018-05-18T05:26:59.123Z,13.10
2018-05-18T05:31:01.722Z,13.00
2018-05-18T05:35:15.414Z,13.30
2018-05-18T05:39:18.771Z,13.30
2018-05-18T05:43:21.359Z,13.30
2018-05-18T05:47:23.884Z,13.30
2018-05-18T05:51:26.507Z,13.20
2018-05-18T05:55:29.042Z,12.80
2018-05-18T05:59:31.710Z,12.50
2018-05-18T06:03:34.250Z,12.10
2018-05-18T06:07:37.130Z,12.30
2018-05-18T06:11:39.667Z,12.80
2018-05-18T06:15:42.667Z,12.70
2018-05-18T06:19:49.023Z,12.40
2018-05-18T06:23:51.579Z,12.40
2018-05-18T06:27:54.895Z,13.20
2018-05-18T06:32:18.311Z,13.10
2018-05-18T06:36:20.842Z,13.10
2018-05-18T06:40:25.548Z,13.10
2018-05-18T06:44:28.846Z,13.20
2018-05-18T06:48:31.409Z,13.10
2018-05-18T06:52:41.107Z,13.40
2018-05-18T06:56:43.656Z,13.50
2018-05-18T07:00:46.946Z,13.40
2018-05-18T07:04:57.538Z,13.40
2018-05-18T07:09:00.059Z,13.30
2018-05-18T07:13:02.990Z,13.10
2018-05-18T07:17:06.299Z,12.80
2018-05-18T07:21:09.319Z,12.80
2018-05-18T07:25:11.854Z,12.60
2018-05-18T07:29:14.526Z,12.60
2018-05-18T07:33:17.979Z,12.70
2018-05-18T07:37:21.306Z,12.60
2018-05-18T07:41:24.835Z,12.80
2018-05-18T07:45:30.220Z,12.90
2018-05-18T07:49:32.744Z,12.80
2018-05-18T07:53:35.340Z,12.90
2018-05-18T07:57:38.610Z,12.80
2018-05-18T08:01:41.166Z,12.70
2018-05-18T08:05:43.700Z,12.70
2018-05-18T08:09:46.243Z,13.00
2018-05-18T08:13:51.494Z,13.50
2018-05-18T08:17:54.067Z,13.40
2018-05-18T08:21:56.671Z,13.50
2018-05-18T08:26:00.042Z,13.50
2018-05-18T08:30:02.575Z,13.50
2018-05-18T08:34:05.899Z,12.90
2018-05-18T08:42:37.738Z,12.50
2018-05-18T08:46:50.094Z,12.40
2018-05-18T08:50:52.647Z,12.40
2018-05-18T08:54:55.176Z,12.30
2018-05-18T08:58:58.510Z,12.30
2018-05-18T09:03:01.804Z,12.50
2018-05-18T09:07:04.386Z,12.40
2018-05-18T09:11:14.042Z,12.50
2018-05-18T09:15:16.603Z,12.50
2018-05-18T09:19:36.624Z,12.50
2018-05-18T09:23:40.047Z,12.60
2018-05-18T09:27:44.367Z,12.70
2018-05-18T09:31:47.015Z,12.60
2018-05-18T09:35:50.336Z,12.90
2018-05-18T09:39:53.655Z,12.90
2018-05-18T09:44:01.552Z,13.00
2018-05-18T09:48:06.136Z,12.90
2018-05-18T09:56:44.434Z,13.10
2018-05-18T10:00:49.696Z,13.20
2018-05-18T10:04:52.251Z,13.20
2018-05-18T10:08:56.735Z,13.30
2018-05-18T10:13:05.807Z,13.50
2018-05-18T10:17:09.111Z,14.00
2018-05-18T10:21:11.750Z,14.00
2018-05-18T10:25:14.303Z,14.20
2018-05-18T10:29:16.859Z,14.40
2018-05-18T10:33:20.160Z,14.70
2018-05-18T10:37:33.046Z,14.60
2018-05-18T10:41:35.590Z,15.20
2018-05-18T10:45:42.335Z,15.00
2018-05-18T10:49:45.636Z,15.30
2018-05-18T10:53:48.191Z,15.20
2018-05-18T10:57:54.144Z,15.40
2018-05-18T11:01:56.814Z,15.40
2018-05-18T11:05:59.342Z,15.70
2018-05-18T11:10:02.222Z,15.90
2018-05-18T11:14:04.776Z,15.90
2018-05-18T11:18:07.324Z,15.60
2018-05-18T11:22:09.859Z,15.50
2018-05-18T11:26:12.510Z,15.80
2018-05-18T11:30:15.007Z,16.50
2018-05-18T11:34:18.329Z,17.20
2018-05-18T11:38:21.626Z,17.30
2018-05-18T11:42:24.280Z,17.20
2018-05-18T11:46:26.855Z,17.50
2018-05-18T11:50:29.407Z,17.20
2018-05-18T11:54:31.940Z,17.00
2018-05-18T11:58:37.950Z,17.10
2018-05-18T12:02:40.475Z,17.00
2018-05-18T12:06:43.878Z,17.00
2018-05-18T12:10:46.399Z,16.90
2018-05-18T12:14:49.724Z,17.30
2018-05-18T12:18:53.020Z,17.30
2018-05-18T12:22:55.570Z,17.30
2018-05-18T12:27:04.380Z,17.30
2018-05-18T12:31:07.033Z,17.40
2018-05-18T12:35:09.562Z,17.40
2018-05-18T12:39:37.642Z,17.50
2018-05-18T12:43:40.170Z,17.50
2018-05-18T12:47:42.834Z,17.50
2018-05-18T12:51:45.427Z,17.30
2018-05-18T12:55:47.986Z,17.50
2018-05-18T12:59:50.544Z,17.40
2018-05-18T13:03:53.107Z,17.30
2018-05-18T13:07:55.634Z,17.40
2018-05-18T13:11:58.283Z,17.30
2018-05-18T13:16:01.663Z,17.00
2018-05-18T13:20:21.563Z,17.00
2018-05-18T13:24:24.094Z,17.00
2018-05-18T13:28:26.654Z,17.10
2018-05-18T13:32:37.452Z,17.20
2018-05-18T13:36:41.974Z,17.20
2018-05-18T13:45:14.413Z,17.10
2018-05-18T13:54:03.958Z,17.10
2018-05-18T13:58:06.583Z,17.20
2018-05-18T14:02:11.192Z,17.10
2018-05-18T14:06:20.350Z,17.10
2018-05-18T14:10:23.843Z,17.20
2018-05-18T14:14:26.427Z,17.20
2018-05-18T14:18:28.989Z,17.30
2018-05-18T14:22:31.514Z,17.30
2018-05-18T14:26:34.068Z,17.30
2018-05-18T14:30:43.974Z,17.30
2018-05-18T14:34:46.534Z,17.20
2018-05-18T14:38:49.201Z,17.30
2018-05-18T14:42:59.532Z,17.40
2018-05-18T14:47:02.830Z,17.30
2018-05-18T14:51:05.563Z,17.20
2018-05-18T14:55:08.146Z,17.20
2018-05-18T14:59:10.715Z,17.30
2018-05-18T15:03:14.383Z,17.40
2018-05-18T15:07:17.060Z,17.40
2018-05-18T15:11:19.612Z,17.40
2018-05-18T15:15:22.267Z,17.50
2018-05-18T15:19:24.796Z,17.50
2018-05-18T15:23:35.918Z,17.40
2018-05-18T15:27:39.450Z,17.30
2018-05-18T15:31:42.006Z,17.40
2018-05-18T15:36:04.585Z,17.50
2018-05-18T15:40:08.006Z,17.40
2018-05-18T15:44:22.999Z,17.40
2018-05-18T15:48:26.412Z,17.20
2018-05-18T15:52:29.743Z,17.30
2018-05-18T15:56:33.092Z,17.30
2018-05-18T16:00:36.521Z,17.30
2018-05-18T16:04:47.614Z,17.30
2018-05-18T16:08:51.912Z,17.30
2018-05-18T16:12:59.091Z,17.20
2018-05-18T16:17:02.477Z,17.30
2018-05-18T16:21:05.181Z,17.20
2018-05-18T16:25:07.691Z,17.20
2018-05-18T16:29:10.244Z,17.10
2018-05-18T16:33:14.788Z,17.10
2018-05-18T16:37:22.068Z,17.10
2018-05-18T16:41:24.611Z,17.20
2018-05-18T16:45:28.114Z,17.20
2018-05-18T16:49:31.415Z,17.10
2018-05-18T16:53:33.970Z,17.10
2018-05-18T16:57:36.519Z,17.10
2018-05-18T17:01:42.743Z,17.10
2018-05-18T17:05:46.035Z,17.00
2018-05-18T17:09:54.918Z,17.00
2018-05-18T17:13:58.231Z,17.10
2018-05-18T17:18:00.806Z,17.00
2018-05-18T17:22:08.168Z,17.10
2018-05-18T17:26:11.488Z,17.00
2018-05-18T17:30:16.727Z,16.90
2018-05-18T17:34:21.215Z,16.80
2018-05-18T17:38:24.512Z,16.80
2018-05-18T17:42:27.070Z,16.80
2018-05-18T17:46:29.596Z,16.80
2018-05-18T17:50:32.147Z,16.80
2018-05-18T17:54:35.450Z,16.70
2018-05-18T17:58:38.011Z,16.60
2018-05-18T18:02:41.463Z,16.60
2018-05-18T18:06:44.023Z,16.50
2018-05-18T18:10:47.319Z,16.50
2018-05-18T18:14:49.866Z,16.40
2018-05-18T18:18:52.390Z,16.40
2018-05-18T18:22:55.885Z,16.20
2018-05-18T18:26:59.179Z,16.00
2018-05-18T18:31:12.444Z,16.00
2018-05-18T18:35:15.755Z,16.00
2018-05-18T18:39:18.313Z,15.90
2018-05-18T18:43:21.819Z,16.00
2018-05-18T18:47:25.151Z,15.90
2018-05-18T18:51:28.622Z,15.90
2018-05-18T18:55:31.234Z,15.80
2018-05-18T18:59:33.760Z,15.80
2018-05-18T19:03:36.310Z,15.70
2018-05-18T19:07:38.834Z,15.60
2018-05-18T19:11:41.479Z,15.40
2018-05-18T19:15:44.002Z,15.20
2018-05-18T19:19:47.313Z,14.90
2018-05-18T19:23:49.844Z,14.90
2018-05-18T19:27:52.403Z,14.80
2018-05-18T19:31:56.948Z,14.70
2018-05-18T19:35:59.607Z,14.70
2018-05-18T19:40:04.108Z,14.70
2018-05-18T19:44:06.675Z,14.60
2018-05-18T19:48:09.198Z,14.50
2018-05-18T19:52:22.199Z,14.50
2018-05-18T19:56:28.478Z,14.50
2018-05-18T20:00:31.026Z,14.50
2018-05-18T20:04:34.612Z,14.50
2018-05-18T20:08:44.314Z,14.50
2018-05-18T20:13:01.971Z,14.40
2018-05-18T20:17:12.320Z,14.30
2018-05-18T20:21:14.843Z,14.30
2018-05-18T20:25:17.447Z,14.30
2018-05-18T20:29:19.977Z,14.30
2018-05-18T20:33:24.301Z,14.00
2018-05-18T20:37:32.678Z,14.00
2018-05-18T20:41:49.039Z,13.70
2018-05-18T20:45:58.926Z,13.70
2018-05-18T20:50:01.477Z,13.70
2018-05-18T20:54:13.701Z,13.50
2018-05-18T20:58:22.007Z,13.50
2018-05-18T21:02:25.542Z,13.40
2018-05-18T21:06:28.602Z,13.20
2018-05-18T21:10:31.993Z,13.00
2018-05-18T21:14:47.136Z,12.90
2018-05-18T21:18:50.439Z,12.50
2018-05-18T21:22:53.806Z,12.40
2018-05-18T21:31:24.077Z,12.40
2018-05-18T21:35:26.626Z,12.30
2018-05-18T21:39:29.964Z,12.30
2018-05-18T21:43:37.379Z,12.30
2018-05-18T21:47:39.944Z,12.30
2018-05-18T21:51:42.494Z,12.20
2018-05-18T21:55:45.103Z,12.10
2018-05-18T21:59:47.677Z,12.10
2018-05-18T22:03:50.667Z,12.10
2018-05-18T22:08:13.831Z,12.00
2018-05-18T22:12:16.564Z,12.00
2018-05-18T22:16:25.983Z,11.70
2018-05-18T22:20:30.894Z,11.60
2018-05-18T22:24:33.432Z,11.80
2018-05-18T22:28:35.999Z,11.80
2018-05-18T22:32:38.524Z,11.70
2018-05-18T22:36:41.083Z,11.50
2018-05-18T22:41:08.838Z,11.40
2018-05-18T22:45:11.386Z,11.50
2018-05-18T22:49:24.598Z,11.40
2018-05-18T22:53:27.998Z,11.30
2018-05-18T22:57:30.510Z,11.20
2018-05-18T23:01:38.378Z,11.40
2018-05-18T23:05:40.902Z,11.40
2018-05-18T23:09:43.451Z,11.20
2018-05-18T23:13:45.974Z,11.00
2018-05-18T23:17:49.298Z,10.90
2018-05-18T23:21:51.843Z,10.80
2018-05-18T23:26:15.494Z,10.70
2018-05-18T23:30:18.786Z,11.00
2018-05-18T23:34:21.332Z,10.90
2018-05-18T23:38:38.015Z,10.70
2018-05-18T23:42:51.275Z,10.70
2018-05-18T23:46:54.799Z,10.60
2018-05-18T23:50:57.378Z,10.60
2018-05-18T23:54:59.900Z,10.60
2018-05-18T23:59:02.452Z,10.50
